Terminal Aerodrome Forecast
Issued by NWS Bismarck, ND

Home | Current Version | Previous Version | Text Only | Print | Product List | Glossary Off
Versions: 1 2 3 4 5 6 7 8 9 10 11 12 13 14 15

000
FTUS43 KBIS 171135
TAFISN
TAF
KISN 171135Z 1712/1812 22009KT P6SM SKC WS020/28035KT
     FM171600 23011KT P6SM SKC
     FM171800 24015G23KT P6SM SKC
     FM180000 22009KT P6SM SKC
     FM180200 21014KT P6SM FEW150 SCT250 WS020/24040KT
     FM180600 25020G30KT P6SM FEW150 FEW250 WS020/27050KT
     FM180900 29024G35KT P6SM FEW150 FEW250 WS020/28040KT=

USA.gov is the U.S. government's official web portal to all federal, state and local government web resources and services.